aviador You're here:

KMLP Decoded Metar

MULLAN PASS in ID, USA
Report Time2017-04-25 07:53:00
UTC Time2017-04-25 08:30:04
Flight Rules lifr LIFR
WindVRB at 06 kt
Visibility1609 m
Phenomena:Mist
Clouds:N/A
Ceiling200 ft
Temp-1°C (ISA -4)
Dew Point-1°C (100% RH)
AAT-5.3°C
QNH1007 hPa
Density Alt5,840 ft
Elevation6,027 ft
Report Wrong Elevation
Raw Report
METAR KMLP 250753Z AUTO VRB06KT 1SM BR VV002 M01/M01 A2974 RMK AO2
SLP040 T10111011 400331017 TSNO=

Extra information for KMLP:More info

Metar Taf Metar & Taf Last 4 Metars F.Rules Stats Wind Profile Meteogram Temp Stats Airport Information Weather charts Add Link Nearby VenuesMetar ALERT Operation Metar Decoded Social comments

AIRNAV info for KMLP